Time;durP1;ratioP1;P1;durP2;ratioP2;P2;SDS_P1;SDS_P2;PMS_P1;PMS_P2;Temp;Humidity;BMP_temperature;BMP_pressure;BME280_temperature;BME280_humidity;BME280_pressure;Samples;Min_cycle;Max_cycle;Signal;HPM_P1;HPM_P2
2023/06/07 00:00:21;;;;;;;11.97;5.97;;;19.80;77.50;;;19.67;55.68;101281.44;5073131;28;20209;-75
2023/06/07 00:02:56;;;;;;;9.67;5.80;;;19.80;77.50;;;19.63;56.11;101281.00;5073051;28;20274;-74
2023/06/07 00:05:31;;;;;;;8.53;5.00;;;19.80;77.90;;;19.62;55.16;101278.50;5073137;28;20200;-76
2023/06/07 00:08:05;;;;;;;6.40;5.67;;;19.70;77.50;;;19.57;56.20;101281.84;5073022;28;20643;-74
2023/06/07 00:10:38;;;;;;;7.10;4.83;;;19.70;78.30;;;19.60;55.59;101286.00;5073066;28;20185;-74
2023/06/07 00:13:12;;;;;;;6.37;5.50;;;19.70;77.70;;;19.57;55.97;101287.28;5072929;28;20756;-74
2023/06/07 00:15:45;;;;;;;5.50;5.00;;;19.70;78.10;;;19.53;56.80;101291.44;5072864;28;20198;-74
2023/06/07 00:18:19;;;;;;;10.43;5.50;;;19.70;78.80;;;19.55;56.47;101286.66;5074287;28;20276;-74
2023/06/07 00:20:53;;;;;;;9.03;5.10;;;19.70;78.80;;;19.56;56.39;101279.31;5076497;28;20673;-75
2023/06/07 00:23:28;;;;;;;6.20;5.10;;;19.70;78.50;;;19.56;56.38;101279.31;5076786;28;20320;-74
2023/06/07 00:26:02;;;;;;;6.73;5.67;;;19.70;79.00;;;19.50;57.32;101291.84;5076836;28;20216;-74
2023/06/07 00:28:35;;;;;;;10.63;5.50;;;19.60;79.30;;;19.49;55.94;101282.03;5076746;28;20244;-74
2023/06/07 00:31:09;;;;;;;7.97;5.73;;;19.60;78.80;;;19.46;56.70;101282.44;5076626;28;20652;-74
2023/06/07 00:33:43;;;;;;;6.23;5.10;;;19.60;79.10;;;19.49;56.38;101279.31;5076820;28;20239;-74
2023/06/07 00:36:16;;;;;;;7.90;5.30;;;19.60;78.70;;;19.46;55.90;101279.72;5076530;28;20237;-75
2023/06/07 00:38:50;;;;;;;7.47;5.27;;;19.60;78.20;;;19.48;55.72;101282.25;5076517;28;20192;-77
2023/06/07 00:41:23;;;;;;;7.23;4.93;;;19.60;78.30;;;19.44;55.71;101283.69;5076337;28;20241;-75
2023/06/07 00:43:57;;;;;;;6.37;5.40;;;19.60;78.30;;;19.43;55.40;101284.72;5076278;28;20317;-75
2023/06/07 00:46:33;;;;;;;6.13;5.00;;;19.60;77.90;;;19.44;55.71;101289.97;5076412;28;20239;-75
2023/06/07 00:49:07;;;;;;;9.70;6.07;;;19.60;77.80;;;19.44;55.67;101291.84;5076380;28;20525;-77
2023/06/07 00:51:40;;;;;;;8.50;5.60;;;19.60;77.70;;;19.44;55.37;101278.25;5076192;28;20181;-75
2023/06/07 00:54:17;;;;;;;7.40;4.70;;;19.60;77.60;;;19.39;55.83;101286.97;5076274;28;20193;-77
2023/06/07 00:56:52;;;;;;;6.27;5.67;;;19.50;78.10;;;19.35;56.07;101287.59;5076504;28;20196;-77
2023/06/07 00:59:26;;;;;;;7.33;5.50;;;19.50;78.70;;;19.32;56.67;101288.84;5075815;28;20193;-77
2023/06/07 01:02:01;;;;;;;6.77;5.00;;;19.50;80.20;;;19.30;56.73;101285.50;5075648;28;20316;-76
2023/06/07 01:04:40;;;;;;;7.33;5.20;;;19.50;79.40;;;19.29;56.73;101289.25;5076096;28;20232;-76
2023/06/07 01:07:17;;;;;;;8.20;5.73;;;19.40;79.50;;;19.29;56.74;101288.41;5076052;28;20247;-76
2023/06/07 01:09:50;;;;;;;5.93;5.13;;;19.40;79.50;;;19.27;56.82;101290.50;5075722;28;20634;-75
2023/06/07 01:12:27;;;;;;;9.53;5.43;;;19.40;79.60;;;19.27;56.70;101285.06;5075566;28;20221;-75
2023/06/07 01:15:02;;;;;;;9.80;5.87;;;19.40;79.80;;;19.24;56.56;101281.72;5075947;28;20295;-76
2023/06/07 01:17:41;;;;;;;6.67;5.43;;;19.40;79.40;;;19.28;56.53;101286.75;5075591;28;20220;-75
2023/06/07 01:20:25;;;;;;;7.80;5.60;;;19.40;80.40;;;19.28;56.30;101289.47;5075748;28;20193;-76
2023/06/07 01:23:04;;;;;;;9.03;5.43;;;19.40;79.30;;;19.24;56.31;101286.31;5075424;28;20621;-75
2023/06/07 01:25:38;;;;;;;5.93;4.97;;;19.40;79.40;;;19.20;56.54;101287.75;5075768;28;20220;-75
2023/06/07 01:28:14;;;;;;;6.57;5.40;;;19.40;79.40;;;19.19;57.01;101289.63;5076047;28;20281;-75
2023/06/07 01:30:49;;;;;;;10.23;5.60;;;19.30;80.00;;;19.16;57.09;101295.47;5074500;28;20276;-75
2023/06/07 01:33:24;;;;;;;6.70;5.43;;;19.30;80.10;;;19.15;56.74;101292.94;5075633;28;20286;-75
2023/06/07 01:36:01;;;;;;;6.77;5.30;;;19.30;80.10;;;19.09;56.92;101293.75;5075435;28;20189;-77
2023/06/07 01:38:37;;;;;;;8.30;5.67;;;19.20;80.20;;;19.06;57.35;101286.03;5075085;28;20616;-77
2023/06/07 01:41:11;;;;;;;6.33;5.20;;;19.20;80.40;;;19.06;57.57;101295.00;5075564;28;20216;-76
2023/06/07 01:43:48;;;;;;;10.23;5.47;;;19.20;81.20;;;19.05;57.65;101287.06;5075286;28;20228;-76
2023/06/07 01:46:22;;;;;;;5.40;4.90;;;19.20;81.30;;;19.03;58.76;101283.72;5075075;28;20680;-76
2023/06/07 01:48:55;;;;;;;6.60;5.20;;;19.20;82.10;;;19.01;58.44;101280.34;5075579;28;20190;-76
2023/06/07 01:51:29;;;;;;;6.10;5.40;;;19.20;82.40;;;19.02;58.41;101280.16;5074876;28;20182;-76
2023/06/07 01:54:04;;;;;;;6.07;5.43;;;19.20;83.30;;;18.97;58.89;101284.53;5075107;28;20221;-76
2023/06/07 01:56:54;;;;;;;6.40;5.20;;;19.10;83.30;;;18.96;58.91;101280.16;5075110;28;20190;-76
2023/06/07 01:59:42;;;;;;;7.87;5.50;;;19.10;83.10;;;18.92;58.72;101289.72;5075005;28;20193;-76
2023/06/07 02:02:33;;;;;;;6.13;5.37;;;19.10;83.60;;;18.87;58.82;101289.50;5074824;28;20244;-76
2023/06/07 02:05:14;;;;;;;7.27;5.70;;;19.00;83.10;;;18.82;59.26;101289.25;5074917;28;20193;-76
2023/06/07 02:07:53;;;;;;;9.30;5.80;;;19.00;83.60;;;18.81;59.78;101284.84;5074947;28;20276;-76
2023/06/07 02:10:31;;;;;;;7.00;5.43;;;19.00;83.80;;;18.81;59.29;101291.13;5074931;28;20208;-76
2023/06/07 02:13:07;;;;;;;7.07;5.60;;;19.00;84.40;;;18.79;59.52;101287.78;5074831;28;20221;-76
2023/06/07 02:15:40;;;;;;;8.47;6.00;;;19.00;84.60;;;18.71;59.81;101286.06;5074754;28;20276;-76
2023/06/07 02:18:19;;;;;;;10.20;6.50;;;18.90;84.90;;;18.69;60.84;101287.31;5074929;28;20209;-76
2023/06/07 02:20:52;;;;;;;7.47;5.80;;;18.90;85.60;;;18.63;61.08;101283.50;5074881;28;20190;-75
2023/06/07 02:23:26;;;;;;;6.50;5.80;;;18.80;86.30;;;18.64;61.12;101290.63;5074195;28;20311;-75
2023/06/07 02:25:59;;;;;;;10.77;5.93;;;18.80;86.60;;;18.61;61.27;101291.00;5074810;28;20205;-76
2023/06/07 02:28:32;;;;;;;12.60;6.00;;;18.80;86.90;;;18.64;61.06;101285.19;5074757;28;20217;-76
2023/06/07 02:31:05;;;;;;;7.87;5.80;;;18.80;87.00;;;18.65;61.06;101286.03;5074745;28;20194;-76
2023/06/07 02:33:39;;;;;;;7.93;6.10;;;18.80;87.20;;;18.62;61.39;101292.69;5075017;28;20315;-76
2023/06/07 02:36:13;;;;;;;11.40;6.03;;;18.80;87.60;;;18.62;61.22;101295.41;5074690;28;20281;-76
2023/06/07 02:38:47;;;;;;;9.77;6.00;;;18.80;87.90;;;18.59;61.57;101293.09;5074662;28;20196;-76
2023/06/07 02:41:21;;;;;;;8.10;6.17;;;18.70;87.90;;;18.60;61.46;101289.34;5074017;28;20300;-76
2023/06/07 02:43:54;;;;;;;7.93;5.73;;;18.80;87.90;;;18.56;61.55;101293.47;5074189;28;20256;-76
2023/06/07 02:46:27;;;;;;;10.93;6.27;;;18.70;88.20;;;18.54;61.69;101294.72;5073960;28;20271;-76
2023/06/07 02:49:01;;;;;;;8.60;5.90;;;18.70;88.40;;;18.50;61.71;101294.28;5073940;28;20200;-76
2023/06/07 02:51:37;;;;;;;11.07;6.20;;;18.70;88.60;;;18.48;61.58;101290.91;5073857;28;20258;-75
2023/06/07 02:54:10;;;;;;;7.77;5.83;;;18.60;89.10;;;18.41;61.74;101298.16;5073781;28;20190;-76
2023/06/07 02:56:44;;;;;;;7.40;6.13;;;18.50;89.50;;;18.34;62.38;101289.13;5073559;28;20244;-76
2023/06/07 02:59:17;;;;;;;10.80;6.03;;;18.50;89.70;;;18.36;61.97;101292.47;5073897;28;20185;-76
2023/06/07 03:01:51;;;;;;;8.90;6.50;;;18.50;89.40;;;18.30;62.18;101289.72;5082334;28;20206;-76
2023/06/07 03:04:26;;;;;;;10.87;6.57;;;18.50;89.60;;;18.31;62.24;101288.69;5081836;28;20225;-76
2023/06/07 03:07:00;;;;;;;8.77;5.90;;;18.50;89.70;;;18.34;61.35;101293.72;5080603;28;20228;-64
2023/06/07 03:09:33;;;;;;;9.77;6.10;;;18.60;89.40;;;18.32;61.46;101288.50;5074672;28;20204;-75
2023/06/07 03:12:07;;;;;;;10.67;6.37;;;18.50;89.20;;;18.29;61.74;101280.75;5075102;28;20308;-76
2023/06/07 03:14:41;;;;;;;10.10;6.43;;;18.50;89.30;;;18.32;62.17;101279.53;5073382;28;20280;-76
2023/06/07 03:17:17;;;;;;;8.50;6.07;;;18.50;89.80;;;18.29;62.01;101285.34;5073183;28;20213;-76
2023/06/07 03:19:50;;;;;;;10.27;6.57;;;18.40;89.70;;;18.23;62.11;101286.97;5073440;28;20194;-77
2023/06/07 03:22:23;;;;;;;12.17;6.80;;;18.40;89.90;;;18.19;62.16;101285.66;5073171;28;20260;-75
2023/06/07 03:24:57;;;;;;;8.40;6.50;;;18.40;89.80;;;18.15;61.77;101284.41;5073070;28;20664;-76
2023/06/07 03:27:32;;;;;;;10.03;6.60;;;18.30;89.80;;;18.05;62.47;101287.44;5073472;28;20264;-75
2023/06/07 03:30:06;;;;;;;8.77;6.70;;;18.30;89.90;;;18.01;62.02;101288.03;5073357;28;20272;-76
2023/06/07 03:32:40;;;;;;;10.20;6.50;;;18.20;90.00;;;17.95;62.07;101288.81;5074058;28;20555;-76
2023/06/07 03:35:14;;;;;;;9.50;6.33;;;18.20;90.00;;;18.02;62.47;101295.13;5073281;28;20189;-77
2023/06/07 03:37:48;;;;;;;8.87;6.43;;;18.20;90.10;;;18.00;62.10;101295.34;5074454;28;20274;-77
2023/06/07 03:40:22;;;;;;;11.13;7.03;;;18.20;89.90;;;17.99;61.81;101295.50;5073368;28;20272;-76
2023/06/07 03:42:55;;;;;;;8.20;5.80;;;18.20;90.00;;;17.92;62.17;101303.59;5073208;28;20325;-75
2023/06/07 03:45:28;;;;;;;12.67;6.90;;;18.10;90.00;;;17.91;62.01;101298.38;5073324;28;20189;-75
2023/06/07 03:48:01;;;;;;;12.60;6.67;;;18.10;90.00;;;17.87;62.44;101307.91;5073081;28;20717;-77
2023/06/07 03:50:35;;;;;;;11.70;6.67;;;18.00;90.10;;;17.73;62.00;101305.09;5073698;28;20247;-77
2023/06/07 03:53:08;;;;;;;10.63;7.23;;;18.00;90.10;;;17.70;61.98;101302.78;5074258;28;20264;-76
2023/06/07 03:55:44;;;;;;;12.50;6.47;;;17.90;90.30;;;17.63;62.77;101304.56;5077441;28;20272;-76
2023/06/07 03:58:18;;;;;;;10.47;6.90;;;17.80;90.50;;;17.56;62.67;101309.06;5077035;28;20650;-77
2023/06/07 04:00:52;;;;;;;10.63;7.10;;;17.80;90.40;;;17.62;62.30;101318.28;5077247;28;20280;-77
2023/06/07 04:03:27;;;;;;;10.57;6.93;;;17.80;90.60;;;17.53;62.87;101316.72;5076770;28;20607;-76
2023/06/07 04:06:01;;;;;;;11.33;6.70;;;17.70;90.50;;;17.51;62.79;101319.59;5077179;28;20225;-77
2023/06/07 04:08:36;;;;;;;10.03;6.93;;;17.70;90.60;;;17.53;62.24;101320.25;5077054;28;20247;-76
2023/06/07 04:11:09;;;;;;;13.17;7.13;;;17.70;90.60;;;17.57;62.48;101313.44;5077011;28;20191;-76
2023/06/07 04:13:44;;;;;;;12.57;7.00;;;17.80;90.40;;;17.53;61.81;101314.84;5076607;28;20221;-76
2023/06/07 04:16:18;;;;;;;9.73;6.80;;;17.70;90.50;;;17.54;62.14;101318.34;5076843;28;20593;-77
2023/06/07 04:18:51;;;;;;;10.87;6.87;;;17.80;90.70;;;17.50;62.60;101323.31;5076897;28;20224;-77
2023/06/07 04:21:25;;;;;;;11.60;6.70;;;17.70;90.70;;;17.39;62.49;101323.84;5076889;28;20217;-76
2023/06/07 04:23:58;;;;;;;9.90;6.73;;;17.60;90.70;;;17.38;62.73;101330.28;5076569;28;20320;-76
2023/06/07 04:26:32;;;;;;;9.80;6.77;;;17.60;91.00;;;17.40;63.65;101328.19;5076846;28;20212;-77
2023/06/07 04:29:05;;;;;;;11.93;6.80;;;17.60;91.40;;;17.47;64.72;101329.13;5076442;28;20232;-77
2023/06/07 04:31:39;;;;;;;11.63;7.00;;;17.70;92.00;;;17.43;66.26;101333.22;5076267;28;20616;-76
2023/06/07 04:34:17;;;;;;;11.43;7.13;;;17.60;92.60;;;17.43;66.48;101333.22;5076332;28;20193;-77
2023/06/07 04:36:51;;;;;;;13.70;7.63;;;17.60;93.20;;;17.43;67.79;101333.22;5076602;28;20251;-77
2023/06/07 04:39:24;;;;;;;11.13;7.40;;;17.60;93.60;;;17.42;66.92;101337.00;5076588;28;20194;-77
2023/06/07 04:42:02;;;;;;;12.43;6.77;;;17.70;93.30;;;17.39;65.87;101334.66;5075981;28;20701;-76
2023/06/07 04:44:36;;;;;;;12.57;7.23;;;17.50;93.00;;;17.38;65.43;101340.25;5076674;28;20193;-76
2023/06/07 04:47:12;;;;;;;11.27;6.60;;;17.60;93.10;;;17.36;65.48;101337.75;5076374;28;20185;-74
2023/06/07 04:49:46;;;;;;;11.40;7.37;;;17.50;92.80;;;17.26;65.96;101341.78;5076370;28;20196;-74
2023/06/07 04:52:20;;;;;;;8.27;6.87;;;17.50;93.10;;;17.16;65.38;101336.63;5076457;28;20221;-74
2023/06/07 04:54:56;;;;;;;9.97;7.20;;;17.40;92.90;;;17.18;65.31;101331.91;5076290;28;20213;-74
2023/06/07 04:57:32;;;;;;;15.40;7.53;;;17.40;93.00;;;17.19;65.48;101333.59;5076202;28;20189;-73
2023/06/07 05:00:12;;;;;;;10.17;6.93;;;17.40;92.90;;;17.17;64.86;101343.75;5076153;28;20235;-73
2023/06/07 05:02:45;;;;;;;10.20;6.87;;;17.40;92.70;;;17.14;64.55;101346.81;5075978;28;20225;-73
2023/06/07 05:05:19;;;;;;;12.83;7.77;;;17.30;92.60;;;17.00;65.83;101348.53;5075793;28;20297;-73
2023/06/07 05:07:53;;;;;;;12.57;7.10;;;17.20;92.90;;;17.06;65.71;101347.75;5075946;28;20656;-74
2023/06/07 05:10:26;;;;;;;16.20;7.03;;;17.30;93.10;;;17.06;65.64;101349.63;5075644;28;20611;-73
2023/06/07 05:12:59;;;;;;;9.30;7.53;;;17.30;93.00;;;16.96;66.23;101344.50;5075857;28;20256;-73
2023/06/07 05:15:33;;;;;;;13.20;7.87;;;17.20;93.50;;;16.93;66.31;101347.59;5075608;28;20211;-74
2023/06/07 05:18:07;;;;;;;12.10;7.43;;;17.20;93.50;;;16.94;67.20;101343.88;5075839;28;20197;-74
2023/06/07 05:20:41;;;;;;;13.43;7.30;;;17.20;94.00;;;16.88;67.14;101338.38;5075784;28;20194;-73
2023/06/07 05:23:16;;;;;;;10.07;7.07;;;17.10;93.80;;;16.89;66.88;101346.28;5075272;28;20230;-74
2023/06/07 05:25:51;;;;;;;12.67;7.20;;;17.10;94.00;;;16.94;67.66;101351.13;5075692;28;20193;-74
2023/06/07 05:28:24;;;;;;;10.10;6.60;;;17.10;94.20;;;16.91;68.30;101343.41;5075677;28;20284;-74
2023/06/07 05:30:58;;;;;;;10.33;6.67;;;17.10;94.80;;;16.86;69.49;101341.25;5075628;28;20300;-74
2023/06/07 05:33:32;;;;;;;8.97;7.30;;;17.10;95.10;;;16.87;69.56;101342.09;5075548;28;20304;-74
2023/06/07 05:36:05;;;;;;;12.53;7.27;;;17.10;95.30;;;16.71;68.74;101333.13;5075531;28;20610;-74
2023/06/07 05:38:39;;;;;;;13.63;7.53;;;17.00;95.10;;;16.79;68.33;101344.88;5075501;28;20229;-71
2023/06/07 05:41:13;;;;;;;12.43;7.83;;;17.00;95.00;;;16.60;69.44;101344.41;5075626;28;20224;-75
2023/06/07 05:43:46;;;;;;;13.23;8.00;;;16.80;95.50;;;16.71;68.85;101343.94;5076224;28;20728;-75
2023/06/07 05:46:20;;;;;;;17.90;8.10;;;16.90;95.30;;;16.77;68.33;101346.94;5075696;28;20632;-76
2023/06/07 05:48:53;;;;;;;13.40;7.33;;;17.00;95.50;;;16.68;67.44;101355.13;5075225;28;20190;-76
2023/06/07 05:51:27;;;;;;;16.50;8.00;;;16.90;95.30;;;16.70;67.33;101346.84;5074976;28;20609;-75
2023/06/07 05:54:00;;;;;;;18.10;8.20;;;16.90;94.40;;;16.65;68.67;101351.94;5075466;28;20281;-75
2023/06/07 05:56:34;;;;;;;15.93;7.90;;;16.90;94.90;;;16.69;68.17;101350.56;5075189;28;20200;-76
2023/06/07 05:59:08;;;;;;;12.77;7.30;;;16.90;95.10;;;16.68;67.62;101354.28;5078076;28;20715;-75
2023/06/07 06:01:44;;;;;;;13.40;7.20;;;16.90;95.00;;;16.63;68.48;101349.44;5074462;28;20200;-76
2023/06/07 06:04:17;;;;;;;12.90;7.50;;;16.90;94.90;;;16.48;68.17;101345.84;5074675;28;20223;-76
2023/06/07 06:06:51;;;;;;;11.13;7.37;;;16.70;94.90;;;16.51;68.18;101356.28;5074663;28;20208;-76
2023/06/07 06:09:24;;;;;;;17.57;7.27;;;16.70;95.10;;;16.55;67.95;101365.75;5074401;28;20717;-76
2023/06/07 06:11:59;;;;;;;12.70;7.80;;;16.80;95.00;;;16.50;68.24;101362.72;5075292;28;20283;-76
2023/06/07 06:14:33;;;;;;;10.17;7.03;;;16.70;95.20;;;16.48;68.53;101363.91;5074507;28;20239;-76
2023/06/07 06:17:08;;;;;;;15.67;7.33;;;16.70;95.30;;;16.33;68.90;101363.06;5073409;28;20646;-76
2023/06/07 06:19:41;;;;;;;13.57;7.57;;;16.60;95.40;;;16.42;69.03;101379.00;5074702;28;20284;-76
2023/06/07 06:22:15;;;;;;;14.37;8.43;;;16.70;95.40;;;16.41;69.85;101368.38;5074023;28;20645;-67
2023/06/07 06:24:49;;;;;;;17.43;7.90;;;16.70;96.40;;;16.45;70.17;101373.25;5074529;28;20304;-76
2023/06/07 06:27:23;;;;;;;12.83;7.93;;;16.70;96.20;;;16.52;72.22;101371.47;5074459;28;20289;-76
2023/06/07 06:29:56;;;;;;;14.70;8.13;;;16.70;96.90;;;16.55;72.33;101362.16;5074454;28;20190;-76
2023/06/07 06:32:29;;;;;;;13.70;8.57;;;16.80;97.20;;;16.51;72.68;101358.97;5074315;28;20221;-75
2023/06/07 06:35:03;;;;;;;16.90;8.60;;;16.70;97.70;;;16.47;72.54;101357.66;5074275;28;20535;-75
2023/06/07 06:37:37;;;;;;;15.73;8.60;;;16.70;97.70;;;16.44;73.08;101358.03;5073983;28;20212;-75
2023/06/07 06:40:13;;;;;;;18.50;8.23;;;16.70;98.10;;;16.11;74.35;101351.25;5074141;28;20236;-75
2023/06/07 06:42:47;;;;;;;14.10;8.80;;;16.50;97.90;;;16.15;75.09;101357.97;5074369;28;20643;-75
2023/06/07 06:45:20;;;;;;;14.73;9.10;;;16.40;98.70;;;16.24;74.65;101367.69;5074005;28;20237;-75
2023/06/07 06:47:55;;;;;;;16.13;8.60;;;16.50;98.50;;;16.21;74.31;101377.00;5074014;28;20186;-75
2023/06/07 06:50:29;;;;;;;17.73;8.83;;;16.50;98.40;;;16.31;74.51;101382.16;5074009;28;20259;-75
2023/06/07 06:53:06;;;;;;;15.30;9.30;;;16.60;98.80;;;16.38;74.58;101377.69;5073746;28;20229;-73
2023/06/07 06:55:39;;;;;;;12.67;8.87;;;16.70;99.10;;;16.47;75.15;101373.06;5073527;28;20232;-73
2023/06/07 06:58:13;;;;;;;20.57;8.63;;;16.70;99.00;;;16.37;73.92;101367.91;5073834;28;20228;-73
2023/06/07 07:00:47;;;;;;;17.80;9.03;;;16.70;98.70;;;16.42;73.83;101378.16;5073947;28;20193;-74
2023/06/07 07:03:21;;;;;;;13.87;9.17;;;16.70;98.50;;;16.48;73.49;101380.97;5073997;28;20232;-74
2023/06/07 07:05:54;;;;;;;16.17;8.70;;;16.70;98.50;;;16.43;73.93;101383.41;5073730;28;20200;-74
2023/06/07 07:08:28;;;;;;;16.87;8.93;;;16.70;98.70;;;16.45;73.55;101381.34;5073956;28;20194;-72
2023/06/07 07:11:02;;;;;;;17.37;9.40;;;16.70;98.40;;;16.31;73.54;101387.53;5073591;28;20709;-72
2023/06/07 07:13:36;;;;;;;13.93;8.90;;;16.60;98.30;;;16.23;73.79;101384.94;5073381;28;20221;-72
2023/06/07 07:16:09;;;;;;;15.00;8.97;;;16.50;98.70;;;16.29;73.58;101381.50;5073544;28;20217;-72
2023/06/07 07:18:43;;;;;;;15.83;9.03;;;16.50;98.70;;;16.35;73.05;101380.75;5073606;28;20216;-73
2023/06/07 07:21:16;;;;;;;16.50;8.77;;;16.60;98.20;;;16.37;73.12;101396.81;5073248;28;20398;-73
2023/06/07 07:23:49;;;;;;;18.07;9.50;;;16.60;98.40;;;16.37;72.63;101388.69;5073067;28;20709;-72
2023/06/07 07:26:23;;;;;;;16.20;9.00;;;16.60;98.00;;;16.33;73.18;101396.34;5073488;28;20189;-72
2023/06/07 07:28:57;;;;;;;15.13;9.37;;;16.60;98.20;;;16.40;72.98;101402.69;5073516;28;20251;-73
2023/06/07 07:31:33;;;;;;;17.83;10.17;;;16.70;98.40;;;16.45;73.42;101410.22;5073514;28;20604;-73
2023/06/07 07:34:08;;;;;;;15.57;10.00;;;16.70;98.50;;;16.44;73.14;101420.19;5073539;28;20322;-73
2023/06/07 07:36:44;;;;;;;18.10;9.43;;;16.70;98.40;;;16.52;74.15;101420.13;5073419;28;20248;-73
2023/06/07 07:39:21;;;;;;;15.30;10.07;;;16.80;98.70;;;16.62;74.14;101419.91;5073452;28;20186;-72
2023/06/07 07:41:55;;;;;;;19.40;10.40;;;17.70;98.90;;;16.67;72.87;101423.75;5072951;28;20776;-72
2023/06/07 07:44:29;;;;;;;17.93;10.67;;;16.90;98.30;;;16.67;72.95;101412.94;5073329;28;20592;-72
2023/06/07 07:47:03;;;;;;;16.63;9.67;;;17.00;98.20;;;16.76;72.25;101418.25;5073300;28;20193;-72
2023/06/07 07:49:36;;;;;;;19.13;9.97;;;17.10;98.10;;;16.74;72.86;101404.94;5072941;28;20634;-72
2023/06/07 07:52:10;;;;;;;16.60;9.93;;;17.10;98.40;;;16.88;72.98;101409.53;5072810;28;20316;-72
2023/06/07 07:54:43;;;;;;;19.40;10.40;;;17.20;98.10;;;16.87;72.62;101418.66;5073116;28;20185;-72
2023/06/07 07:57:16;;;;;;;17.03;10.90;;;17.20;97.90;;;16.95;72.57;101417.75;5073347;28;20193;-72
2023/06/07 07:59:50;;;;;;;18.03;10.83;;;17.30;98.10;;;16.96;71.87;101416.69;5073151;28;20308;-72
2023/06/07 08:02:23;;;;;;;17.17;10.63;;;17.30;97.60;;;16.91;72.25;101416.44;5073016;28;20312;-72
2023/06/07 08:04:57;;;;;;;16.77;10.10;;;17.30;97.40;;;17.04;73.30;101419.31;5072968;28;20209;-72
2023/06/07 08:07:30;;;;;;;16.17;10.70;;;17.40;97.80;;;17.06;72.68;101418.09;5073319;28;20239;-73
2023/06/07 08:10:04;;;;;;;19.20;11.07;;;17.40;97.90;;;17.05;71.29;101413.75;5072687;28;20550;-73
2023/06/07 08:12:39;;;;;;;14.27;10.83;;;17.40;97.30;;;16.89;70.67;101418.47;5072936;28;20229;-73
2023/06/07 08:15:14;;;;;;;14.73;10.60;;;17.30;97.00;;;16.99;71.69;101410.91;5073042;28;20224;-73
2023/06/07 08:17:47;;;;;;;19.57;10.43;;;17.30;97.40;;;17.10;70.01;101414.00;5072882;28;20296;-73
2023/06/07 08:20:24;;;;;;;12.97;8.77;;;17.50;97.00;;;17.16;70.24;101407.00;5072996;28;20193;-73
2023/06/07 08:22:58;;;;;;;15.83;10.23;;;17.50;97.00;;;17.22;69.63;101407.13;5072829;28;20225;-73
2023/06/07 08:25:31;;;;;;;14.27;9.33;;;17.60;96.70;;;17.29;70.44;101400.94;5072577;28;20578;-73
2023/06/07 08:28:05;;;;;;;15.90;11.07;;;17.70;96.80;;;17.25;70.17;101405.88;5072916;28;20196;-72
2023/06/07 08:30:41;;;;;;;17.40;10.67;;;17.60;96.80;;;17.33;71.12;101413.06;5072551;28;20627;-72
2023/06/07 08:33:14;;;;;;;18.23;11.43;;;17.70;97.00;;;17.36;71.25;101402.72;5072781;28;20331;-72
2023/06/07 08:35:48;;;;;;;15.70;10.67;;;17.70;97.20;;;17.39;70.13;101405.03;5072476;28;20638;-73
2023/06/07 08:38:21;;;;;;;14.63;9.70;;;17.70;97.00;;;17.52;69.90;101399.78;5072698;28;20190;-73
2023/06/07 08:40:59;;;;;;;17.80;10.80;;;17.90;96.80;;;17.62;71.31;101403.06;5076401;28;20236;-72
2023/06/07 08:43:32;;;;;;;18.27;13.03;;;18.00;97.30;;;17.70;70.00;101408.38;5076359;28;20312;-74
2023/06/07 08:46:07;;;;;;;15.17;10.13;;;18.10;96.70;;;17.74;69.45;101404.25;5076383;28;20259;-73
2023/06/07 08:48:42;;;;;;;16.30;10.53;;;18.10;96.10;;;17.83;68.67;101406.84;5076802;28;20193;-72
2023/06/07 08:51:18;;;;;;;15.00;10.63;;;18.20;96.10;;;17.90;70.05;101419.44;5076355;28;20224;-73
2023/06/07 08:54:02;;;;;;;13.13;9.97;;;18.30;96.60;;;17.93;70.04;101410.91;5076239;28;20228;-73
2023/06/07 08:56:38;;;;;;;17.80;10.33;;;18.30;96.30;;;17.96;68.67;101404.28;5076283;28;20193;-73
2023/06/07 08:59:12;;;;;;;12.83;10.27;;;18.30;96.00;;;18.08;68.97;101419.00;5076357;28;20201;-73
2023/06/07 09:01:47;;;;;;;16.07;10.43;;;18.40;96.00;;;18.18;68.38;101416.81;5076038;28;20194;-73
2023/06/07 09:04:21;;;;;;;14.07;10.33;;;18.50;96.00;;;18.16;67.17;101418.84;5075932;28;20197;-73
2023/06/07 09:06:54;;;;;;;17.07;9.93;;;18.50;95.00;;;18.30;67.80;101412.53;5075989;28;20235;-73
2023/06/07 09:09:28;;;;;;;16.03;10.20;;;18.60;95.50;;;18.39;67.28;101416.78;5075682;28;20753;-73
2023/06/07 09:12:03;;;;;;;14.87;9.77;;;18.80;95.20;;;18.51;66.53;101423.41;5075870;28;20228;-73
2023/06/07 09:14:37;;;;;;;13.43;9.07;;;18.90;94.90;;;18.57;65.30;101422.63;5076152;28;20206;-72
2023/06/07 09:17:10;;;;;;;14.23;10.30;;;19.00;94.00;;;18.64;65.81;101420.81;5075501;28;20221;-73
2023/06/07 09:19:45;;;;;;;14.83;9.43;;;19.00;94.10;;;18.69;65.54;101418.34;5075510;28;20709;-73
2023/06/07 09:22:25;;;;;;;13.70;9.27;;;19.00;94.00;;;18.78;65.27;101418.19;5075727;28;20225;-73
2023/06/07 09:25:07;;;;;;;17.47;9.73;;;19.10;94.00;;;18.84;65.54;101418.22;5075371;28;20216;-73
2023/06/07 09:27:40;;;;;;;15.27;10.03;;;19.20;94.20;;;18.92;64.97;101415.38;5076516;28;20216;-73
2023/06/07 09:30:17;;;;;;;12.60;8.47;;;19.30;93.90;;;18.98;65.09;101420.00;5075625;28;20194;-73
2023/06/07 09:32:50;;;;;;;14.40;9.23;;;19.40;93.80;;;19.04;65.59;101418.38;5076322;28;20240;-73
2023/06/07 09:35:25;;;;;;;13.47;9.10;;;19.40;94.00;;;19.11;64.85;101421.97;5075587;28;20182;-73
2023/06/07 09:38:00;;;;;;;11.43;9.23;;;19.50;93.60;;;19.15;64.46;101424.06;5075428;28;20729;-73
2023/06/07 09:40:34;;;;;;;10.87;8.13;;;19.50;93.40;;;19.17;64.39;101421.19;5075502;28;20228;-74
2023/06/07 09:43:07;;;;;;;14.80;9.13;;;19.50;93.30;;;19.18;63.78;101417.41;5075362;28;20314;-74
2023/06/07 09:45:53;;;;;;;13.73;8.73;;;19.50;93.00;;;19.15;63.26;101418.66;5075254;28;20780;-73
2023/06/07 09:48:26;;;;;;;15.47;8.90;;;19.50;92.60;;;19.14;62.86;101418.88;5075012;28;20193;-73
2023/06/07 09:51:04;;;;;;;15.57;8.63;;;19.50;92.60;;;19.15;63.33;101418.66;5074140;28;20194;-74
2023/06/07 09:53:56;;;;;;;11.90;9.20;;;19.50;92.70;;;19.17;63.30;101423.91;5075119;28;20225;-74
2023/06/07 09:56:30;;;;;;;12.77;8.03;;;19.50;93.20;;;19.13;62.60;101419.91;5075338;28;20276;-74
2023/06/07 09:59:16;;;;;;;13.37;8.73;;;19.40;92.20;;;19.14;63.10;101421.59;5075068;28;20189;-73
2023/06/07 10:01:51;;;;;;;11.13;8.50;;;19.50;92.50;;;19.17;63.74;101421.19;5074898;28;20193;-73
2023/06/07 10:04:26;;;;;;;15.17;9.17;;;19.50;92.90;;;19.18;63.01;101428.25;5074643;28;20189;-73
2023/06/07 10:07:02;;;;;;;12.97;8.40;;;19.50;92.40;;;19.19;62.37;101429.94;5074805;28;20299;-73
2023/06/07 10:09:35;;;;;;;10.30;8.50;;;19.50;92.20;;;19.23;61.47;101425.81;5074813;28;20220;-73
2023/06/07 10:12:14;;;;;;;11.90;8.57;;;19.50;91.60;;;19.28;62.45;101425.22;5074729;28;20235;-73
2023/06/07 10:14:52;;;;;;;11.83;7.93;;;19.60;92.10;;;19.36;62.41;101428.59;5074791;28;20262;-73
2023/06/07 10:17:34;;;;;;;16.13;8.73;;;19.70;92.10;;;19.37;62.19;101430.28;5074299;28;20217;-73
2023/06/07 10:20:16;;;;;;;15.40;8.97;;;19.70;92.00;;;19.41;61.61;101430.75;5074364;28;20221;-73
2023/06/07 10:22:54;;;;;;;13.00;8.23;;;19.70;91.50;;;19.51;61.87;101423.91;5074579;28;20225;-74
2023/06/07 10:25:32;;;;;;;11.70;7.67;;;19.80;91.80;;;19.55;61.02;101430.59;5074453;28;20213;-74
2023/06/07 10:28:22;;;;;;;9.93;7.93;;;19.90;91.40;;;19.70;62.34;101427.72;5074457;28;20193;-74
2023/06/07 10:31:05;;;;;;;13.27;8.50;;;20.00;92.10;;;19.76;60.49;101420.66;5074098;28;20617;-73
2023/06/07 10:33:41;;;;;;;11.87;8.47;;;20.00;91.00;;;19.88;60.58;101419.84;5074061;28;20662;-73
2023/06/07 10:36:17;;;;;;;13.10;9.50;;;20.20;91.20;;;19.99;60.99;101421.13;5074352;28;20193;-72
2023/06/07 10:38:51;;;;;;;15.53;11.37;;;20.30;91.20;;;20.08;61.78;101412.56;5073927;28;20568;-72